createdAt,value
2018-07-17T00:00:24.705Z,20.60
2018-07-17T00:02:52.086Z,20.62
2018-07-17T00:05:19.449Z,20.62
2018-07-17T00:07:46.730Z,20.62
2018-07-17T00:10:14.082Z,20.65
2018-07-17T00:12:41.412Z,20.68
2018-07-17T00:15:08.611Z,20.72
2018-07-17T00:17:36.303Z,20.71
2018-07-17T00:20:05.040Z,20.73
2018-07-17T00:22:32.649Z,20.74
2018-07-17T00:25:00.118Z,20.71
2018-07-17T00:27:27.493Z,20.63
2018-07-17T00:29:54.886Z,20.56
2018-07-17T00:32:22.171Z,20.52
2018-07-17T00:34:49.512Z,20.43
2018-07-17T00:37:16.838Z,20.38
2018-07-17T00:39:44.140Z,20.32
2018-07-17T00:42:11.419Z,20.30
2018-07-17T00:44:38.672Z,20.23
2018-07-17T00:47:06.054Z,20.20
2018-07-17T00:49:33.374Z,20.17
2018-07-17T00:52:00.849Z,20.14
2018-07-17T00:54:28.140Z,20.14
2018-07-17T00:56:55.515Z,20.12
2018-07-17T00:59:22.845Z,20.11
2018-07-17T01:01:55.749Z,20.12
2018-07-17T01:04:28.691Z,20.11
2018-07-17T01:07:01.714Z,20.10
2018-07-17T01:09:34.630Z,20.11
2018-07-17T01:12:08.413Z,20.11
2018-07-17T01:14:47.162Z,20.10
2018-07-17T01:17:15.196Z,20.09
2018-07-17T01:19:42.723Z,20.04
2018-07-17T01:22:10.007Z,20.09
2018-07-17T01:24:37.339Z,20.09
2018-07-17T01:27:04.695Z,20.09
2018-07-17T01:29:32.038Z,20.09
2018-07-17T01:31:59.345Z,20.09
2018-07-17T01:34:26.740Z,20.10
2018-07-17T01:36:54.189Z,20.08
2018-07-17T01:39:21.611Z,20.09
2018-07-17T01:41:48.849Z,20.11
2018-07-17T01:44:16.953Z,20.11
2018-07-17T01:46:45.341Z,20.12
2018-07-17T01:49:13.025Z,20.09
2018-07-17T01:51:40.422Z,20.08
2018-07-17T01:54:07.753Z,20.04
2018-07-17T01:56:35.169Z,20.03
2018-07-17T01:59:02.567Z,20.03
2018-07-17T02:01:29.898Z,20.01
2018-07-17T02:03:57.165Z,19.99
2018-07-17T02:06:24.531Z,19.98
2018-07-17T02:08:51.842Z,19.96
2018-07-17T02:11:19.157Z,19.94
2018-07-17T02:13:46.542Z,19.89
2018-07-17T02:16:13.911Z,19.89
2018-07-17T02:18:41.305Z,19.87
2018-07-17T02:21:08.785Z,19.87
2018-07-17T02:23:36.048Z,19.83
2018-07-17T02:26:03.396Z,19.80
2018-07-17T02:28:30.787Z,19.73
2018-07-17T02:30:58.061Z,19.72
2018-07-17T02:33:25.362Z,19.69
2018-07-17T02:35:53.224Z,19.63
2018-07-17T02:38:20.501Z,19.59
2018-07-17T02:40:47.775Z,19.52
2018-07-17T02:43:15.082Z,19.49
2018-07-17T02:45:42.474Z,19.45
2018-07-17T02:48:09.735Z,19.41
2018-07-17T02:50:37.100Z,19.37
2018-07-17T02:53:04.397Z,19.35
2018-07-17T02:55:32.155Z,19.32
2018-07-17T02:57:59.476Z,19.29
2018-07-17T03:00:26.784Z,19.25
2018-07-17T03:02:54.418Z,19.24
2018-07-17T03:05:21.729Z,19.21
2018-07-17T03:07:49.042Z,19.16
2018-07-17T03:10:16.456Z,19.14
2018-07-17T03:12:43.687Z,19.13
2018-07-17T03:15:10.955Z,19.13
2018-07-17T03:17:38.562Z,19.11
2018-07-17T03:20:05.960Z,19.08
2018-07-17T03:22:33.329Z,19.06
2018-07-17T03:25:00.684Z,19.06
2018-07-17T03:27:28.236Z,19.02
2018-07-17T03:29:55.558Z,19.00
2018-07-17T03:32:22.866Z,18.99
2018-07-17T03:34:50.223Z,18.97
2018-07-17T03:37:17.543Z,18.94
2018-07-17T03:39:44.919Z,18.93
2018-07-17T03:42:12.199Z,18.96
2018-07-17T03:44:39.546Z,18.94
2018-07-17T03:47:06.843Z,18.95
2018-07-17T03:49:34.138Z,18.94
2018-07-17T03:52:01.422Z,18.90
2018-07-17T03:54:28.752Z,18.92
2018-07-17T03:56:56.598Z,18.93
2018-07-17T03:59:23.997Z,18.90
2018-07-17T04:01:51.611Z,18.86
2018-07-17T04:04:19.093Z,18.84
2018-07-17T04:06:46.381Z,18.84
2018-07-17T04:09:13.748Z,18.79
2018-07-17T04:11:40.958Z,18.80
2018-07-17T04:14:08.205Z,18.82
2018-07-17T04:16:40.334Z,18.83
2018-07-17T04:19:08.031Z,18.82
2018-07-17T04:21:35.768Z,18.80
2018-07-17T04:24:03.430Z,18.81
2018-07-17T04:26:30.699Z,18.86
2018-07-17T04:28:58.652Z,18.89
2018-07-17T04:31:25.954Z,18.90
2018-07-17T04:33:53.355Z,18.88
2018-07-17T04:36:20.650Z,18.96
2018-07-17T04:38:47.986Z,18.97
2018-07-17T04:41:15.319Z,19.02
2018-07-17T04:43:42.645Z,19.01
2018-07-17T04:46:09.920Z,19.02
2018-07-17T04:48:37.376Z,19.08
2018-07-17T04:51:04.706Z,19.13
2018-07-17T04:53:31.969Z,19.15
2018-07-17T04:55:59.297Z,19.15
2018-07-17T04:58:26.620Z,19.15
2018-07-17T05:00:53.937Z,19.22
2018-07-17T05:03:21.242Z,19.27
2018-07-17T05:05:48.670Z,19.27
2018-07-17T05:08:16.111Z,19.35
2018-07-17T05:10:48.658Z,19.40
2018-07-17T05:13:16.057Z,19.47
2018-07-17T05:15:43.399Z,19.47
2018-07-17T05:18:10.979Z,19.57
2018-07-17T05:20:38.324Z,19.66
2018-07-17T05:23:05.610Z,19.68
2018-07-17T05:25:32.856Z,19.79
2018-07-17T05:28:00.123Z,19.89
2018-07-17T05:30:27.465Z,19.93
2018-07-17T05:32:54.746Z,19.98
2018-07-17T05:35:22.702Z,20.11
2018-07-17T05:37:50.832Z,20.24
2018-07-17T05:40:18.258Z,20.40
2018-07-17T05:42:45.640Z,20.43
2018-07-17T05:45:12.989Z,20.45
2018-07-17T05:47:40.649Z,20.61
2018-07-17T05:50:08.643Z,20.64
2018-07-17T05:52:35.962Z,20.81
2018-07-17T05:55:03.452Z,20.84
2018-07-17T05:57:31.389Z,20.93
2018-07-17T05:59:58.914Z,20.99
2018-07-17T06:02:26.596Z,21.03
2018-07-17T11:16:17.202Z,31.41
2018-07-17T11:18:45.551Z,30.67
2018-07-17T11:21:12.872Z,30.74
2018-07-17T11:23:40.450Z,31.33
2018-07-17T11:26:07.999Z,30.03
2018-07-17T11:28:35.596Z,30.15
2018-07-17T11:31:03.030Z,30.41
2018-07-17T11:33:30.450Z,31.04
2018-07-17T11:35:57.813Z,31.52
2018-07-17T11:38:25.092Z,32.50
2018-07-17T11:40:52.578Z,32.47
2018-07-17T11:43:20.563Z,32.54
2018-07-17T11:45:48.062Z,31.98
2018-07-17T11:48:15.344Z,32.12
2018-07-17T11:50:42.639Z,31.94
2018-07-17T11:53:10.413Z,33.00
2018-07-17T11:55:37.725Z,33.08
2018-07-17T11:58:05.375Z,33.18
2018-07-17T12:00:32.683Z,33.50
2018-07-17T12:03:00.261Z,33.49
2018-07-17T12:05:27.685Z,33.01
2018-07-17T12:07:55.309Z,32.79
2018-07-17T12:10:22.658Z,33.01
2018-07-17T12:12:50.072Z,32.74
2018-07-17T12:15:17.297Z,33.11
2018-07-17T12:17:44.630Z,32.78
2018-07-17T12:20:12.527Z,32.96
2018-07-17T12:22:39.985Z,33.13
2018-07-17T12:25:07.337Z,33.43
2018-07-17T12:27:34.641Z,33.85
2018-07-17T12:30:02.210Z,33.19
2018-07-17T12:32:30.274Z,33.75
2018-07-17T12:34:57.966Z,33.80
2018-07-17T12:37:25.234Z,34.04
2018-07-17T12:39:52.608Z,34.20
2018-07-17T12:42:19.977Z,34.66
2018-07-17T12:44:48.236Z,34.40
2018-07-17T12:47:15.701Z,33.99
2018-07-17T12:49:43.041Z,34.72
2018-07-17T12:52:11.225Z,34.38
2018-07-17T12:54:38.608Z,34.53
2018-07-17T12:57:06.254Z,34.60
2018-07-17T12:59:33.591Z,33.86
2018-07-17T13:02:01.026Z,33.00
2018-07-17T13:04:28.456Z,33.19
2018-07-17T13:06:55.754Z,32.87
2018-07-17T13:09:23.118Z,33.02
2018-07-17T13:11:50.438Z,33.04
2018-07-17T13:14:17.885Z,32.25
2018-07-17T13:16:45.393Z,32.18
2018-07-17T13:19:13.168Z,31.21
2018-07-17T13:21:41.217Z,31.17
2018-07-17T13:24:09.099Z,30.82
2018-07-17T13:26:37.076Z,31.39
2018-07-17T13:29:04.527Z,30.62
2018-07-17T13:31:31.947Z,30.23
2018-07-17T13:33:59.572Z,30.26
2018-07-17T13:36:26.918Z,29.92
2018-07-17T13:38:55.064Z,29.58
2018-07-17T13:41:22.402Z,29.08
2018-07-17T13:43:50.409Z,28.94
2018-07-17T13:46:17.696Z,28.31
2018-07-17T13:48:45.085Z,27.87
2018-07-17T13:51:12.693Z,27.83
2018-07-17T13:53:40.102Z,27.50
2018-07-17T13:56:07.603Z,28.00
2018-07-17T13:58:35.135Z,27.96
2018-07-17T14:01:02.584Z,28.28
2018-07-17T14:03:30.755Z,27.52
2018-07-17T14:05:58.514Z,27.26
2018-07-17T14:08:26.038Z,26.64
2018-07-17T14:10:53.771Z,26.32
2018-07-17T14:13:21.401Z,26.82
2018-07-17T14:15:48.910Z,26.49
2018-07-17T14:18:16.404Z,26.93
2018-07-17T14:20:43.951Z,28.15
2018-07-17T14:23:11.843Z,28.69
2018-07-17T14:25:39.258Z,28.67
2018-07-17T14:28:06.666Z,29.44
2018-07-17T14:30:33.983Z,30.01
2018-07-17T14:33:01.554Z,31.03
2018-07-17T14:35:30.027Z,31.56
2018-07-17T14:37:58.526Z,31.92
2018-07-17T14:40:26.187Z,31.15
2018-07-17T14:42:54.168Z,30.50
2018-07-17T14:45:21.527Z,30.26
2018-07-17T14:47:49.245Z,31.04
2018-07-17T14:50:16.868Z,30.54
2018-07-17T14:52:44.311Z,30.57
2018-07-17T14:55:11.818Z,30.56
2018-07-17T14:57:39.731Z,29.23
2018-07-17T15:00:08.753Z,29.68
2018-07-17T15:02:36.106Z,28.43
2018-07-17T15:05:03.918Z,28.80
2018-07-17T15:07:31.274Z,28.30
2018-07-17T15:09:59.300Z,28.71
2018-07-17T15:12:26.882Z,28.48
2018-07-17T15:14:54.322Z,28.90
2018-07-17T15:17:22.153Z,28.23
2018-07-17T15:19:49.527Z,28.22
2018-07-17T15:22:16.875Z,29.69
2018-07-17T15:24:44.327Z,28.42
2018-07-17T15:27:12.362Z,28.12
2018-07-17T15:29:39.949Z,26.93
2018-07-17T15:32:07.867Z,27.43
2018-07-17T15:34:35.144Z,27.38
2018-07-17T15:37:02.444Z,27.34
2018-07-17T15:39:29.980Z,28.03
2018-07-17T15:41:57.527Z,27.85
2018-07-17T15:44:24.928Z,28.11
2018-07-17T15:46:52.207Z,28.41
2018-07-17T15:49:19.636Z,29.29
2018-07-17T15:51:47.007Z,28.55
2018-07-17T15:54:14.489Z,28.76
2018-07-17T15:56:41.730Z,29.03
2018-07-17T15:59:09.033Z,29.09
2018-07-17T16:01:36.502Z,29.51
2018-07-17T16:04:03.893Z,29.32
2018-07-17T16:06:31.913Z,29.86
2018-07-17T16:08:59.430Z,29.11
2018-07-17T16:11:28.333Z,29.12
2018-07-17T16:13:55.949Z,28.70
2018-07-17T16:16:23.403Z,28.37
2018-07-17T16:18:51.518Z,27.81
2018-07-17T16:21:19.032Z,26.83
2018-07-17T16:23:46.379Z,25.71
2018-07-17T16:26:14.703Z,25.40
2018-07-17T16:28:42.034Z,25.45
2018-07-17T16:31:09.569Z,25.03
2018-07-17T16:33:37.032Z,24.73
2018-07-17T16:36:04.981Z,24.61
2018-07-17T16:38:32.348Z,24.56
2018-07-17T16:40:59.904Z,24.21
2018-07-17T16:43:27.433Z,23.72
2018-07-17T16:45:54.984Z,23.69
2018-07-17T16:48:22.347Z,23.67
2018-07-17T16:50:50.044Z,23.61
2018-07-17T16:53:17.371Z,23.58
2018-07-17T16:55:44.850Z,23.63
2018-07-17T16:58:12.273Z,23.38
2018-07-17T17:00:39.890Z,23.32
2018-07-17T17:03:07.595Z,23.05
2018-07-17T17:05:35.160Z,22.98
2018-07-17T17:08:03.380Z,22.82
2018-07-17T17:10:31.113Z,22.57
2018-07-17T17:12:58.634Z,22.55
2018-07-17T17:15:27.650Z,22.35
2018-07-17T17:17:55.971Z,22.35
2018-07-17T17:20:23.666Z,22.30
2018-07-17T17:22:51.199Z,22.21
2018-07-17T17:25:18.829Z,22.16
2018-07-17T17:27:46.545Z,22.07
2018-07-17T17:30:14.087Z,22.07
2018-07-17T17:32:41.481Z,22.08
2018-07-17T17:35:09.129Z,21.98
2018-07-17T17:37:37.291Z,21.92
2018-07-17T17:40:04.657Z,21.81
2018-07-17T17:42:32.805Z,21.82
2018-07-17T17:45:00.584Z,21.89
2018-07-17T17:47:27.984Z,21.83
2018-07-17T17:49:55.570Z,21.70
2018-07-17T17:52:23.467Z,21.78
2018-07-17T17:54:50.963Z,21.69
2018-07-17T17:57:18.628Z,21.61
2018-07-17T17:59:46.070Z,21.53
2018-07-17T18:02:13.455Z,21.30
2018-07-17T18:04:40.936Z,21.42
2018-07-17T18:07:08.585Z,21.41
2018-07-17T18:09:36.571Z,21.33
2018-07-17T18:12:04.991Z,21.31
2018-07-17T18:14:32.376Z,21.26
2018-07-17T18:16:59.909Z,21.27
2018-07-17T18:19:27.628Z,21.22
2018-07-17T18:21:55.476Z,21.16
2018-07-17T18:24:22.798Z,21.12
2018-07-17T18:26:50.371Z,21.06
2018-07-17T18:29:17.746Z,21.10
2018-07-17T18:31:45.982Z,21.05
2018-07-17T18:34:13.471Z,21.06
2018-07-17T18:36:40.901Z,21.00
2018-07-17T18:39:08.541Z,20.93
2018-07-17T18:41:35.948Z,20.93
2018-07-17T18:44:03.232Z,20.83
2018-07-17T18:46:30.604Z,20.77
2018-07-17T18:48:58.390Z,20.77
2018-07-17T18:51:25.801Z,20.69
2018-07-17T18:53:53.283Z,20.64
2018-07-17T18:56:21.394Z,20.71
2018-07-17T18:58:48.816Z,20.70
2018-07-17T19:01:17.050Z,20.63
2018-07-17T19:03:44.395Z,20.60
2018-07-17T19:06:11.870Z,20.60
2018-07-17T19:08:39.500Z,20.54
2018-07-17T19:11:06.836Z,20.57
2018-07-17T19:13:34.189Z,20.53
2018-07-17T19:16:02.207Z,20.50
2018-07-17T19:18:29.591Z,20.44
2018-07-17T19:20:57.158Z,20.42
2018-07-17T19:23:24.660Z,20.39
2018-07-17T19:25:52.256Z,20.31
2018-07-17T19:28:20.389Z,20.32
2018-07-17T19:30:48.573Z,20.25
2018-07-17T19:33:16.115Z,20.18
2018-07-17T19:35:43.605Z,20.08
2018-07-17T19:38:10.930Z,20.01
2018-07-17T19:40:39.180Z,19.97
2018-07-17T19:43:06.532Z,19.95
2018-07-17T19:45:33.957Z,19.87
2018-07-17T19:48:01.326Z,19.81
2018-07-17T19:50:28.724Z,19.74
2018-07-17T19:52:56.474Z,19.69
2018-07-17T19:55:24.847Z,19.63
2018-07-17T19:57:52.196Z,19.58
2018-07-17T20:00:19.660Z,19.58
2018-07-17T20:02:47.047Z,19.49
2018-07-17T20:05:14.359Z,19.43
2018-07-17T20:07:41.908Z,19.41
2018-07-17T20:10:09.223Z,19.39
2018-07-17T20:12:36.582Z,19.35
2018-07-17T20:15:04.151Z,19.27
2018-07-17T20:17:31.503Z,19.20
2018-07-17T20:19:59.209Z,19.15
2018-07-17T20:22:26.676Z,19.11
2018-07-17T20:24:54.071Z,19.09
2018-07-17T20:27:21.469Z,19.02
2018-07-17T20:29:48.808Z,19.01
2018-07-17T20:32:16.197Z,18.93
2018-07-17T20:34:43.576Z,18.91
2018-07-17T20:37:11.044Z,18.87
2018-07-17T20:39:38.549Z,18.81
2018-07-17T20:42:05.969Z,18.75
2018-07-17T20:44:33.325Z,18.66
2018-07-17T20:47:00.885Z,18.64
2018-07-17T20:49:28.261Z,18.61
2018-07-17T20:51:55.628Z,18.53
2018-07-17T20:54:23.116Z,18.50
2018-07-17T20:56:50.532Z,18.46
2018-07-17T20:59:17.877Z,18.50
2018-07-17T21:01:45.247Z,18.45
2018-07-17T21:04:12.623Z,18.42
2018-07-17T21:06:40.071Z,18.37
2018-07-17T21:09:08.845Z,18.28
2018-07-17T21:11:36.149Z,18.25
2018-07-17T21:14:03.476Z,18.24
2018-07-17T21:16:31.198Z,18.23
2018-07-17T21:18:58.546Z,18.17
2018-07-17T21:21:25.934Z,18.17
2018-07-17T21:23:53.314Z,18.08
2018-07-17T21:26:20.660Z,18.13
2018-07-17T21:28:48.147Z,18.11
2018-07-17T21:31:15.603Z,18.05
2018-07-17T21:33:43.596Z,18.07
2018-07-17T21:36:11.196Z,17.99
2018-07-17T21:38:39.117Z,17.99
2018-07-17T21:41:06.483Z,17.98
2018-07-17T21:43:33.830Z,17.93
2018-07-17T21:46:01.196Z,17.87
2018-07-17T21:48:28.937Z,17.86
2018-07-17T21:50:57.221Z,17.78
2018-07-17T21:53:24.501Z,17.78
2018-07-17T21:55:51.901Z,17.72
2018-07-17T21:58:19.295Z,17.71
2018-07-17T22:00:46.600Z,17.67
2018-07-17T22:03:13.965Z,17.66
2018-07-17T22:05:41.479Z,17.64
2018-07-17T22:08:09.032Z,17.53
2018-07-17T22:10:36.344Z,17.50
2018-07-17T22:13:03.850Z,17.42
2018-07-17T22:15:31.188Z,17.38
2018-07-17T22:17:58.439Z,17.41
2018-07-17T22:20:26.025Z,17.37
2018-07-17T22:22:53.330Z,17.35
2018-07-17T22:25:20.590Z,17.29
2018-07-17T22:27:47.920Z,17.29
2018-07-17T22:30:15.254Z,17.25
2018-07-17T22:32:42.710Z,17.21
2018-07-17T22:35:10.080Z,17.21
2018-07-17T22:37:37.440Z,17.20
2018-07-17T22:40:04.873Z,17.05
2018-07-17T22:42:32.160Z,17.12
2018-07-17T22:44:59.615Z,17.11
2018-07-17T22:47:26.901Z,17.11
2018-07-17T22:49:54.348Z,17.06
2018-07-17T22:52:21.603Z,16.99
2018-07-17T22:54:49.092Z,16.97
2018-07-17T22:57:16.415Z,16.95
2018-07-17T22:59:44.840Z,16.90
2018-07-17T23:02:12.196Z,16.95
2018-07-17T23:04:39.426Z,16.87
2018-07-17T23:07:06.728Z,16.80
2018-07-17T23:09:34.054Z,16.82
2018-07-17T23:12:01.381Z,16.88
2018-07-17T23:14:28.668Z,16.91
2018-07-17T23:16:55.989Z,16.92
2018-07-17T23:19:23.367Z,16.83
2018-07-17T23:21:50.697Z,16.84
2018-07-17T23:24:18.096Z,16.77
2018-07-17T23:26:45.345Z,16.73
2018-07-17T23:29:12.603Z,16.80
2018-07-17T23:31:39.940Z,16.77
2018-07-17T23:34:07.196Z,16.75
2018-07-17T23:36:34.595Z,16.65
2018-07-17T23:39:01.871Z,16.69
2018-07-17T23:41:29.213Z,16.62
2018-07-17T23:43:56.545Z,16.53
2018-07-17T23:46:23.886Z,16.50
2018-07-17T23:48:51.196Z,16.55
2018-07-17T23:51:18.546Z,16.47
2018-07-17T23:53:45.835Z,16.45
2018-07-17T23:56:13.326Z,16.39
2018-07-17T23:58:40.777Z,16.36
